createdAt,value
2018-12-20T00:01:05.156Z,3.15
2018-12-20T00:03:34.710Z,3.85
2018-12-20T00:06:03.986Z,3.55
2018-12-20T00:08:33.569Z,3.80
2018-12-20T00:11:08.528Z,3.65
2018-12-20T00:16:51.707Z,3.83
2018-12-20T00:22:20.309Z,6.10
2018-12-20T00:24:50.088Z,3.05
2018-12-20T00:27:20.742Z,4.35
2018-12-20T00:29:50.417Z,5.08
2018-12-20T00:32:20.971Z,5.15
2018-12-20T00:34:50.332Z,6.78
2018-12-20T00:37:19.971Z,3.67
2018-12-20T00:39:49.749Z,4.60
2018-12-20T00:42:19.894Z,4.87
2018-12-20T00:44:50.204Z,5.37
2018-12-20T00:50:17.382Z,4.60
2018-12-20T00:52:46.611Z,6.20
2018-12-20T00:55:16.263Z,5.10
2018-12-20T00:57:45.540Z,7.05
2018-12-20T01:00:14.963Z,5.47
2018-12-20T01:02:44.327Z,3.85
2018-12-20T01:05:13.653Z,5.28
2018-12-20T01:07:43.552Z,5.80
2018-12-20T01:10:13.001Z,6.58
2018-12-20T01:12:42.213Z,4.78
2018-12-20T01:15:11.444Z,5.33
2018-12-20T01:17:41.039Z,5.92
2018-12-20T01:20:12.020Z,5.90
2018-12-20T01:22:42.320Z,8.25
2018-12-20T01:25:11.965Z,5.03
2018-12-20T01:27:41.761Z,4.80
2018-12-20T01:30:13.523Z,5.85
2018-12-20T01:32:42.377Z,7.28
2018-12-20T01:35:17.000Z,5.20
2018-12-20T01:37:46.857Z,4.83
2018-12-20T01:40:16.192Z,6.92
2018-12-20T01:42:46.577Z,5.28
2018-12-20T01:45:16.589Z,4.85
2018-12-20T01:47:45.745Z,4.53
2018-12-20T01:50:17.798Z,5.22
2018-12-20T01:52:46.938Z,5.00
2018-12-20T01:55:16.339Z,5.50
2018-12-20T01:57:45.584Z,4.97
2018-12-20T02:00:16.249Z,5.40
2018-12-20T02:02:45.472Z,4.55
2018-12-20T02:05:15.043Z,5.20
2018-12-20T02:07:44.434Z,4.28
2018-12-20T02:10:17.872Z,4.65
2018-12-20T02:12:47.171Z,6.42
2018-12-20T02:15:18.789Z,5.22
2018-12-20T02:17:48.985Z,7.05
2018-12-20T02:20:19.005Z,7.17
2018-12-20T02:22:47.839Z,6.08
2018-12-20T02:25:16.944Z,5.33
2018-12-20T02:27:46.706Z,5.35
2018-12-20T02:30:16.537Z,5.37
2018-12-20T02:32:45.956Z,7.08
2018-12-20T02:35:16.647Z,8.33
2018-12-20T02:37:46.982Z,4.85
2018-12-20T02:40:21.583Z,5.58
2018-12-20T02:42:51.117Z,5.00
2018-12-20T02:45:21.774Z,7.35
2018-12-20T02:47:50.873Z,7.40
2018-12-20T02:50:22.029Z,7.15
2018-12-20T02:52:52.284Z,6.83
2018-12-20T02:55:21.728Z,5.90
2018-12-20T02:57:52.041Z,6.17
2018-12-20T03:00:21.572Z,6.17
2018-12-20T03:02:50.817Z,8.20
2018-12-20T03:05:20.106Z,6.05
2018-12-20T03:07:49.292Z,7.28
2018-12-20T03:10:18.633Z,6.83
2018-12-20T03:12:47.863Z,6.20
2018-12-20T03:15:20.078Z,7.95
2018-12-20T03:17:48.219Z,10.23
2018-12-20T03:20:18.199Z,9.78
2018-12-20T03:22:47.798Z,10.08
2018-12-20T03:25:17.383Z,11.05
2018-12-20T03:27:46.770Z,7.60
2018-12-20T03:30:16.684Z,8.60
2018-12-20T03:32:46.384Z,7.67
2018-12-20T03:35:16.595Z,7.83
2018-12-20T03:37:46.584Z,7.95
2018-12-20T03:40:17.172Z,6.85
2018-12-20T03:42:47.362Z,5.78
2018-12-20T03:45:17.909Z,8.30
2018-12-20T03:47:47.574Z,8.48
2018-12-20T03:50:17.186Z,12.10
2018-12-20T03:52:47.295Z,6.72
2018-12-20T03:55:16.541Z,7.30
2018-12-20T03:57:45.985Z,7.12
2018-12-20T04:00:16.493Z,8.18
2018-12-20T04:05:39.115Z,9.18
2018-12-20T04:08:10.195Z,6.87
2018-12-20T04:10:42.020Z,8.40
2018-12-20T04:13:11.207Z,10.63
2018-12-20T04:15:40.482Z,8.90
2018-12-20T04:18:10.411Z,5.30
2018-12-20T04:20:51.273Z,6.83
2018-12-20T04:26:12.486Z,8.23
2018-12-20T04:28:42.107Z,4.92
2018-12-20T04:31:11.273Z,7.12
2018-12-20T04:33:41.227Z,6.83
2018-12-20T04:36:10.778Z,4.83
2018-12-20T04:38:40.810Z,4.08
2018-12-20T04:41:10.820Z,4.53
2018-12-20T04:43:40.221Z,4.20
2018-12-20T04:46:14.974Z,7.05
2018-12-20T04:48:56.626Z,5.25
2018-12-20T04:51:27.811Z,7.53
2018-12-20T04:53:58.085Z,6.45
2018-12-20T05:05:17.923Z,10.80
2018-12-20T05:07:52.778Z,7.70
2018-12-20T05:10:34.341Z,7.65
2018-12-20T05:13:11.725Z,5.55
2018-12-20T05:18:39.794Z,4.45
2018-12-20T05:21:19.118Z,3.55
2018-12-20T05:23:53.830Z,5.40
2018-12-20T05:26:27.150Z,5.85
2018-12-20T05:29:03.230Z,3.47
2018-12-20T05:31:39.035Z,6.33
2018-12-20T05:34:12.305Z,5.33
2018-12-20T05:36:47.750Z,4.50
2018-12-20T05:39:22.785Z,4.50
2018-12-20T05:41:55.699Z,6.65
2018-12-20T05:44:29.339Z,3.70
2018-12-20T05:47:03.879Z,3.55
2018-12-20T05:49:41.245Z,3.75
2018-12-20T05:52:16.185Z,3.50
2018-12-20T05:54:52.888Z,3.08
2018-12-20T05:57:27.941Z,2.50
2018-12-20T06:00:05.112Z,3.75
2018-12-20T06:02:41.121Z,2.52
2018-12-20T06:05:15.471Z,2.72
2018-12-20T06:07:50.623Z,4.03
2018-12-20T06:10:24.480Z,4.70
2018-12-20T06:12:59.244Z,4.45
2018-12-20T06:15:41.473Z,3.92
2018-12-20T06:18:14.445Z,3.92
2018-12-20T06:20:49.730Z,3.70
2018-12-20T06:23:24.459Z,2.95
2018-12-20T06:25:59.891Z,3.20
2018-12-20T06:28:29.059Z,2.87
2018-12-20T06:31:04.293Z,3.95
2018-12-20T06:33:41.525Z,2.90
2018-12-20T06:36:16.520Z,3.90
2018-12-20T06:38:50.942Z,3.30
2018-12-20T06:41:26.030Z,3.70
2018-12-20T06:44:07.006Z,3.65
2018-12-20T06:46:39.376Z,2.92
2018-12-20T06:49:13.727Z,8.15
2018-12-20T06:51:49.398Z,5.17
2018-12-20T06:54:24.616Z,3.22
2018-12-20T06:57:00.510Z,3.27
2018-12-20T06:59:37.750Z,5.25
2018-12-20T07:02:14.037Z,4.97
2018-12-20T07:04:48.801Z,5.40
2018-12-20T07:07:23.820Z,3.17
2018-12-20T07:09:59.302Z,4.20
2018-12-20T07:12:34.834Z,4.35
2018-12-20T07:15:07.975Z,5.25
2018-12-20T07:17:44.239Z,5.83
2018-12-20T07:20:19.217Z,4.58
2018-12-20T07:22:55.139Z,3.72
2018-12-20T07:28:17.804Z,4.92
2018-12-20T07:30:51.243Z,4.33
2018-12-20T07:33:27.447Z,4.12
2018-12-20T07:36:00.037Z,4.55
2018-12-20T07:38:35.183Z,5.10
2018-12-20T07:41:09.290Z,3.60
2018-12-20T07:43:49.017Z,4.03
2018-12-20T07:46:24.094Z,4.35
2018-12-20T07:48:59.737Z,4.97
2018-12-20T07:51:35.257Z,4.10
2018-12-20T07:54:07.898Z,4.60
2018-12-20T07:56:43.723Z,4.15
2018-12-20T07:59:23.526Z,5.75
2018-12-20T08:01:56.167Z,4.87
2018-12-20T08:04:28.710Z,3.77
2018-12-20T08:07:09.071Z,6.60
2018-12-20T08:09:53.935Z,6.20
2018-12-20T08:12:29.179Z,4.25
2018-12-20T08:15:03.977Z,2.75
2018-12-20T08:17:40.743Z,4.60
2018-12-20T08:20:23.289Z,4.85
2018-12-20T08:22:58.548Z,3.22
2018-12-20T08:34:07.538Z,3.33
2018-12-20T08:36:44.823Z,4.53
2018-12-20T08:39:19.564Z,3.35
2018-12-20T08:41:52.170Z,5.58
2018-12-20T08:44:30.454Z,4.37
2018-12-20T08:47:03.185Z,3.55
2018-12-20T08:49:37.744Z,4.40
2018-12-20T08:52:12.286Z,2.47
2018-12-20T08:54:47.371Z,3.15
2018-12-20T08:57:23.350Z,3.05
2018-12-20T08:59:56.647Z,1.70
2018-12-20T09:02:31.262Z,3.00
2018-12-20T09:05:05.392Z,2.30
2018-12-20T09:07:39.505Z,3.08
2018-12-20T09:10:16.708Z,2.77
2018-12-20T09:12:51.355Z,2.42
2018-12-20T09:15:27.743Z,2.27
2018-12-20T09:18:02.712Z,3.47
2018-12-20T09:20:38.983Z,2.50
2018-12-20T09:23:15.951Z,3.25
2018-12-20T09:25:48.608Z,3.45
2018-12-20T09:28:27.329Z,2.10
2018-12-20T09:31:01.913Z,1.45
2018-12-20T09:33:34.758Z,2.55
2018-12-20T09:36:11.573Z,2.17
2018-12-20T09:38:47.838Z,2.15
2018-12-20T09:41:23.472Z,2.55
2018-12-20T09:43:57.733Z,2.60
2018-12-20T09:46:32.020Z,2.60
2018-12-20T09:49:06.712Z,1.52
2018-12-20T09:51:43.783Z,2.00
2018-12-20T09:54:19.578Z,1.05
2018-12-20T09:56:54.877Z,3.55
2018-12-20T09:59:31.796Z,1.30
2018-12-20T10:02:11.116Z,3.08
2018-12-20T10:04:49.631Z,1.22
2018-12-20T10:07:24.415Z,1.40
2018-12-20T10:09:59.993Z,1.60
2018-12-20T10:12:34.523Z,2.08
2018-12-20T10:15:08.636Z,2.77
2018-12-20T10:17:42.852Z,2.67
2018-12-20T10:20:17.939Z,1.10
2018-12-20T10:22:52.169Z,1.87
2018-12-20T10:25:31.394Z,2.27
2018-12-20T10:28:07.327Z,5.62
2018-12-20T10:30:45.417Z,4.15
2018-12-20T10:33:18.309Z,2.15
2018-12-20T10:35:54.173Z,3.00
2018-12-20T10:38:29.235Z,1.25
2018-12-20T10:41:03.746Z,0.80
2018-12-20T10:43:40.609Z,1.07
2018-12-20T10:46:19.476Z,1.25
2018-12-20T10:48:57.758Z,1.85
2018-12-20T10:51:32.781Z,4.25
2018-12-20T10:54:06.022Z,4.42
2018-12-20T10:56:40.939Z,0.90
2018-12-20T10:59:15.886Z,1.57
2018-12-20T11:01:58.347Z,1.32
2018-12-20T11:05:08.842Z,1.27
2018-12-20T11:07:49.421Z,0.78
2018-12-20T11:10:29.479Z,1.65
2018-12-20T11:13:10.385Z,1.98
2018-12-20T11:15:46.101Z,1.47
2018-12-20T11:18:27.643Z,1.70
2018-12-20T11:21:02.314Z,2.52
2018-12-20T11:26:38.331Z,3.77
2018-12-20T11:29:18.251Z,1.12
2018-12-20T11:31:53.077Z,2.42
2018-12-20T11:34:38.038Z,1.87
2018-12-20T11:37:10.349Z,1.37
2018-12-20T11:39:59.401Z,4.87
2018-12-20T11:42:30.011Z,2.27
2018-12-20T11:45:06.230Z,1.98
2018-12-20T11:47:51.419Z,1.87
2018-12-20T11:53:23.972Z,7.72
2018-12-20T11:55:59.735Z,2.10
2018-12-20T11:58:34.717Z,1.27
2018-12-20T12:01:07.296Z,3.62
2018-12-20T12:03:57.225Z,3.72
2018-12-20T12:06:24.740Z,1.57
2018-12-20T12:09:13.713Z,1.95
2018-12-20T12:11:48.096Z,4.20
2018-12-20T12:14:24.633Z,3.15
2018-12-20T12:17:01.328Z,1.17
2018-12-20T12:19:40.256Z,1.40
2018-12-20T12:22:18.165Z,1.70
2018-12-20T12:24:52.516Z,1.30
2018-12-20T12:27:27.514Z,4.97
2018-12-20T12:30:02.162Z,2.15
2018-12-20T12:32:36.442Z,3.25
2018-12-20T12:35:08.811Z,2.62
2018-12-20T12:37:43.092Z,4.33
2018-12-20T12:40:23.239Z,3.90
2018-12-20T12:42:58.544Z,2.08
2018-12-20T12:45:35.760Z,2.25
2018-12-20T12:48:10.730Z,2.05
2018-12-20T12:50:47.399Z,5.37
2018-12-20T12:53:20.201Z,4.12
2018-12-20T12:55:58.894Z,2.90
2018-12-20T12:58:43.187Z,1.07
2018-12-20T13:01:17.888Z,3.90
2018-12-20T13:03:50.465Z,2.25
2018-12-20T13:06:27.088Z,1.00
2018-12-20T13:08:59.751Z,1.55
2018-12-20T13:11:41.444Z,0.68
2018-12-20T13:14:16.872Z,3.30
2018-12-20T13:16:59.810Z,0.90
2018-12-20T13:19:47.552Z,3.25
2018-12-20T13:22:24.034Z,0.85
2018-12-20T13:25:13.425Z,3.10
2018-12-20T13:28:00.130Z,1.35
2018-12-20T13:30:36.523Z,1.50
2018-12-20T13:33:11.574Z,5.87
2018-12-20T13:35:48.973Z,0.70
2018-12-20T13:38:25.466Z,1.02
2018-12-20T13:41:00.322Z,3.05
2018-12-20T13:43:39.799Z,1.98
2018-12-20T13:46:14.376Z,2.17
2018-12-20T13:48:48.862Z,0.90
2018-12-20T13:51:25.158Z,1.50
2018-12-20T13:53:58.042Z,2.05
2018-12-20T13:56:32.266Z,2.27
2018-12-20T13:59:07.135Z,3.20
2018-12-20T14:01:39.523Z,2.40
2018-12-20T14:04:13.900Z,3.08
2018-12-20T14:06:50.295Z,1.75
2018-12-20T14:09:25.456Z,1.72
2018-12-20T14:15:01.679Z,3.27
2018-12-20T14:26:28.547Z,3.47
2018-12-20T14:32:22.903Z,2.72
2018-12-20T14:47:14.169Z,4.10
2018-12-20T14:50:03.943Z,1.85
2018-12-20T14:52:47.649Z,2.15
2018-12-20T14:55:22.552Z,3.95
2018-12-20T15:03:41.979Z,2.35
2018-12-20T15:06:22.015Z,1.90
2018-12-20T15:09:05.051Z,1.70
2018-12-20T15:11:44.826Z,2.20
2018-12-20T15:17:30.098Z,1.20
2018-12-20T15:23:43.672Z,2.27
2018-12-20T15:26:54.767Z,3.37
2018-12-20T15:51:49.909Z,2.05
2018-12-20T15:54:33.054Z,2.00
2018-12-20T15:57:36.776Z,4.35
2018-12-20T16:00:26.037Z,5.33
2018-12-20T16:03:08.361Z,1.95
2018-12-20T16:09:30.439Z,3.37
2018-12-20T16:20:37.871Z,1.20
2018-12-20T16:23:24.624Z,3.58
2018-12-20T16:32:03.188Z,3.60
2018-12-20T16:43:24.324Z,2.47
2018-12-20T16:46:02.190Z,2.20
2018-12-20T16:55:00.567Z,1.30
2018-12-20T17:00:43.021Z,5.30
2018-12-20T17:03:19.903Z,3.15
2018-12-20T17:05:57.384Z,1.50
2018-12-20T17:21:35.669Z,3.47
2018-12-20T17:53:41.322Z,1.40
2018-12-20T17:59:37.427Z,1.77
2018-12-20T18:05:21.087Z,2.42
2018-12-20T18:07:57.569Z,1.27
2018-12-20T18:10:32.415Z,2.72
2018-12-20T18:13:07.875Z,4.80
2018-12-20T18:15:46.179Z,2.15
2018-12-20T18:18:21.220Z,1.90
2018-12-20T18:20:57.326Z,6.78
2018-12-20T18:23:32.042Z,2.80
2018-12-20T18:26:07.275Z,2.60
2018-12-20T18:28:42.186Z,4.33
2018-12-20T18:31:18.735Z,1.10
2018-12-20T18:33:54.060Z,1.00
2018-12-20T18:36:26.881Z,3.87
2018-12-20T18:39:02.323Z,2.00
2018-12-20T18:41:38.272Z,2.92
2018-12-20T18:44:13.692Z,2.10
2018-12-20T18:46:50.504Z,2.37
2018-12-20T18:49:26.017Z,1.70
2018-12-20T18:52:01.033Z,1.98
2018-12-20T18:54:36.662Z,1.15
2018-12-20T18:57:10.120Z,1.95
2018-12-20T18:59:45.286Z,2.75
2018-12-20T19:02:22.540Z,2.35
2018-12-20T19:04:56.352Z,1.45
2018-12-20T19:07:30.914Z,2.62
2018-12-20T19:10:06.689Z,2.02
2018-12-20T19:12:41.738Z,1.52
2018-12-20T19:18:04.095Z,3.37
2018-12-20T19:20:37.268Z,2.15
2018-12-20T19:23:13.980Z,1.65
2018-12-20T19:25:49.145Z,2.40
2018-12-20T19:28:23.779Z,2.85
2018-12-20T19:31:06.585Z,4.58
2018-12-20T19:33:42.164Z,4.37
2018-12-20T19:36:23.196Z,1.82
2018-12-20T19:39:00.325Z,1.15
2018-12-20T19:41:56.685Z,1.45
2018-12-20T19:44:37.100Z,5.03
2018-12-20T19:50:11.957Z,3.83
2018-12-20T19:52:48.260Z,3.80
2018-12-20T19:55:29.077Z,1.37
2018-12-20T19:58:06.269Z,4.55
2018-12-20T20:00:43.050Z,2.70
2018-12-20T20:03:22.218Z,2.60
2018-12-20T20:06:01.384Z,2.80
2018-12-20T20:08:38.908Z,1.15
2018-12-20T20:11:15.561Z,1.27
2018-12-20T20:13:50.228Z,1.57
2018-12-20T20:16:26.440Z,2.05
2018-12-20T20:19:02.850Z,2.98
2018-12-20T20:24:33.659Z,2.25
2018-12-20T20:27:16.754Z,3.52
2018-12-20T20:29:51.835Z,2.02
2018-12-20T20:32:31.519Z,4.53
2018-12-20T20:35:06.412Z,3.55
2018-12-20T20:37:42.450Z,3.05
2018-12-20T20:40:19.500Z,3.50
2018-12-20T20:42:54.656Z,1.30
2018-12-20T20:45:35.153Z,2.95
2018-12-20T20:48:08.489Z,5.33
2018-12-20T20:54:13.308Z,1.52
2018-12-20T20:59:50.645Z,2.33
2018-12-20T21:02:23.156Z,4.85
2018-12-20T21:05:01.043Z,2.27
2018-12-20T21:07:37.530Z,2.05
2018-12-20T21:10:17.046Z,2.60
2018-12-20T21:12:51.968Z,4.15
2018-12-20T21:15:32.829Z,5.33
2018-12-20T21:18:08.288Z,1.05
2018-12-20T21:20:43.192Z,2.12
2018-12-20T21:23:19.244Z,1.72
2018-12-20T21:25:54.560Z,1.95
2018-12-20T21:28:32.333Z,3.85
2018-12-20T21:31:10.513Z,1.75
2018-12-20T21:33:45.637Z,1.90
2018-12-20T21:36:22.621Z,2.05
2018-12-20T21:38:59.080Z,1.62
2018-12-20T21:41:43.080Z,2.77
2018-12-20T21:44:19.969Z,1.30
2018-12-20T21:46:54.906Z,1.20
2018-12-20T21:49:33.159Z,2.65
2018-12-20T21:52:07.654Z,3.22
2018-12-20T21:54:41.777Z,2.25
2018-12-20T21:57:16.709Z,1.80
2018-12-20T21:59:52.090Z,1.52
2018-12-20T22:02:29.308Z,1.10
2018-12-20T22:05:04.175Z,1.67
2018-12-20T22:07:40.110Z,2.98
2018-12-20T22:10:15.702Z,2.60
2018-12-20T22:12:52.246Z,1.20
2018-12-20T22:15:27.988Z,1.72
2018-12-20T22:18:03.850Z,1.50
2018-12-20T22:20:47.273Z,1.35
2018-12-20T22:23:18.711Z,2.15
2018-12-20T22:25:52.058Z,1.25
2018-12-20T22:28:24.699Z,1.60
2018-12-20T22:31:00.236Z,2.45
2018-12-20T22:33:34.505Z,1.65
2018-12-20T22:36:08.946Z,2.30
2018-12-20T22:38:44.362Z,2.15
2018-12-20T22:41:19.035Z,4.30
2018-12-20T22:43:52.992Z,6.10
2018-12-20T22:46:26.710Z,3.52
2018-12-20T22:49:03.383Z,1.22
2018-12-20T22:51:42.328Z,5.65
2018-12-20T22:54:16.866Z,4.53
2018-12-20T22:56:53.540Z,1.27
2018-12-20T22:59:29.383Z,2.83
2018-12-20T23:02:04.174Z,2.83
2018-12-20T23:04:38.911Z,1.37
2018-12-20T23:07:12.095Z,2.72
2018-12-20T23:09:47.002Z,1.02
2018-12-20T23:15:12.412Z,3.95
2018-12-20T23:17:45.176Z,1.50
2018-12-20T23:20:21.635Z,3.65
2018-12-20T23:22:54.293Z,1.27
2018-12-20T23:25:30.228Z,2.17
2018-12-20T23:28:04.756Z,1.07
2018-12-20T23:30:41.183Z,3.17
2018-12-20T23:33:17.960Z,2.00
2018-12-20T23:35:50.475Z,6.20
2018-12-20T23:38:29.253Z,2.37
2018-12-20T23:41:08.259Z,1.65
2018-12-20T23:43:42.639Z,1.95
2018-12-20T23:46:17.405Z,2.85
2018-12-20T23:48:50.047Z,1.35
2018-12-20T23:51:32.571Z,4.37
2018-12-20T23:54:10.010Z,1.52
2018-12-20T23:56:52.916Z,1.00
2018-12-20T23:59:27.616Z,1.05
